sensor_id;sensor_type;location;lat;lon;timestamp;P1;durP1;ratioP1;P2;durP2;ratioP2
5058;SDS011;2548;52.050;11.036;2023-08-01T00:00:50;1.00;;;1.00;;
5058;SDS011;2548;52.050;11.036;2023-08-01T00:03:18;1.00;;;1.00;;
5058;SDS011;2548;52.050;11.036;2023-08-01T00:05:46;0.85;;;0.85;;
5058;SDS011;2548;52.050;11.036;2023-08-01T00:08:15;1.17;;;1.17;;
5058;SDS011;2548;52.050;11.036;2023-08-01T00:10:42;1.00;;;1.00;;
5058;SDS011;2548;52.050;11.036;2023-08-01T00:13:09;1.10;;;1.00;;
5058;SDS011;2548;52.050;11.036;2023-08-01T00:15:37;1.00;;;0.80;;
5058;SDS011;2548;52.050;11.036;2023-08-01T00:18:04;1.30;;;0.98;;
5058;SDS011;2548;52.050;11.036;2023-08-01T00:20:32;1.53;;;0.90;;
5058;SDS011;2548;52.050;11.036;2023-08-01T00:22:59;0.63;;;0.63;;
5058;SDS011;2548;52.050;11.036;2023-08-01T00:25:28;1.23;;;1.10;;
5058;SDS011;2548;52.050;11.036;2023-08-01T00:27:56;2.40;;;0.73;;
5058;SDS011;2548;52.050;11.036;2023-08-01T00:30:23;0.70;;;0.70;;
5058;SDS011;2548;52.050;11.036;2023-08-01T00:32:51;3.13;;;0.90;;
5058;SDS011;2548;52.050;11.036;2023-08-01T00:35:18;0.90;;;0.90;;
5058;SDS011;2548;52.050;11.036;2023-08-01T00:37:46;1.05;;;0.80;;
5058;SDS011;2548;52.050;11.036;2023-08-01T00:40:14;2.83;;;0.77;;
5058;SDS011;2548;52.050;11.036;2023-08-01T00:42:44;1.67;;;0.68;;
5058;SDS011;2548;52.050;11.036;2023-08-01T00:45:11;0.73;;;0.68;;
5058;SDS011;2548;52.050;11.036;2023-08-01T00:47:39;0.90;;;0.60;;
5058;SDS011;2548;52.050;11.036;2023-08-01T00:50:07;3.45;;;0.70;;
5058;SDS011;2548;52.050;11.036;2023-08-01T00:52:35;0.60;;;0.60;;
5058;SDS011;2548;52.050;11.036;2023-08-01T00:55:02;0.83;;;0.60;;
5058;SDS011;2548;52.050;11.036;2023-08-01T00:57:30;2.70;;;0.75;;
5058;SDS011;2548;52.050;11.036;2023-08-01T00:59:59;1.45;;;0.60;;
5058;SDS011;2548;52.050;11.036;2023-08-01T01:02:26;5.90;;;0.47;;
5058;SDS011;2548;52.050;11.036;2023-08-01T01:04:54;2.38;;;0.60;;
5058;SDS011;2548;52.050;11.036;2023-08-01T01:07:21;0.50;;;0.50;;
5058;SDS011;2548;52.050;11.036;2023-08-01T01:09:50;0.90;;;0.70;;
5058;SDS011;2548;52.050;11.036;2023-08-01T01:12:18;0.87;;;0.87;;
5058;SDS011;2548;52.050;11.036;2023-08-01T01:14:45;0.70;;;0.70;;
5058;SDS011;2548;52.050;11.036;2023-08-01T01:17:14;0.90;;;0.65;;
5058;SDS011;2548;52.050;11.036;2023-08-01T01:19:41;0.93;;;0.93;;
5058;SDS011;2548;52.050;11.036;2023-08-01T01:22:10;9.27;;;2.67;;
5058;SDS011;2548;52.050;11.036;2023-08-01T01:24:38;0.70;;;0.70;;
5058;SDS011;2548;52.050;11.036;2023-08-01T01:27:07;1.00;;;0.80;;
5058;SDS011;2548;52.050;11.036;2023-08-01T01:29:35;7.73;;;1.00;;
5058;SDS011;2548;52.050;11.036;2023-08-01T01:32:04;1.73;;;0.60;;
5058;SDS011;2548;52.050;11.036;2023-08-01T01:34:33;4.40;;;0.90;;
5058;SDS011;2548;52.050;11.036;2023-08-01T01:37:00;1.30;;;1.20;;
5058;SDS011;2548;52.050;11.036;2023-08-01T01:39:30;1.53;;;0.80;;
5058;SDS011;2548;52.050;11.036;2023-08-01T01:41:57;3.17;;;0.90;;
5058;SDS011;2548;52.050;11.036;2023-08-01T01:44:25;2.17;;;0.73;;
5058;SDS011;2548;52.050;11.036;2023-08-01T01:46:54;0.70;;;0.70;;
5058;SDS011;2548;52.050;11.036;2023-08-01T01:49:21;3.80;;;1.00;;
5058;SDS011;2548;52.050;11.036;2023-08-01T01:51:50;3.17;;;1.00;;
5058;SDS011;2548;52.050;11.036;2023-08-01T01:54:18;2.70;;;1.03;;
5058;SDS011;2548;52.050;11.036;2023-08-01T01:56:47;3.40;;;0.95;;
5058;SDS011;2548;52.050;11.036;2023-08-01T01:59:14;0.70;;;0.70;;
5058;SDS011;2548;52.050;11.036;2023-08-01T02:01:42;0.70;;;0.70;;
5058;SDS011;2548;52.050;11.036;2023-08-01T02:04:09;1.97;;;0.90;;
5058;SDS011;2548;52.050;11.036;2023-08-01T02:06:36;4.60;;;0.97;;
5058;SDS011;2548;52.050;11.036;2023-08-01T02:09:04;1.33;;;1.07;;
5058;SDS011;2548;52.050;11.036;2023-08-01T02:11:31;3.33;;;0.90;;
5058;SDS011;2548;52.050;11.036;2023-08-01T02:14:00;0.70;;;0.67;;
5058;SDS011;2548;52.050;11.036;2023-08-01T02:16:28;3.87;;;0.87;;
5058;SDS011;2548;52.050;11.036;2023-08-01T02:18:56;1.20;;;0.90;;
5058;SDS011;2548;52.050;11.036;2023-08-01T02:21:23;11.50;;;1.20;;
5058;SDS011;2548;52.050;11.036;2023-08-01T02:23:51;4.47;;;1.45;;
5058;SDS011;2548;52.050;11.036;2023-08-01T02:26:18;4.68;;;1.20;;
5058;SDS011;2548;52.050;11.036;2023-08-01T02:28:48;3.57;;;0.80;;
5058;SDS011;2548;52.050;11.036;2023-08-01T02:31:17;4.30;;;1.17;;
5058;SDS011;2548;52.050;11.036;2023-08-01T02:33:44;8.77;;;1.38;;
5058;SDS011;2548;52.050;11.036;2023-08-01T02:36:12;3.27;;;1.10;;
5058;SDS011;2548;52.050;11.036;2023-08-01T02:38:39;2.63;;;1.02;;
5058;SDS011;2548;52.050;11.036;2023-08-01T02:41:07;2.35;;;1.08;;
5058;SDS011;2548;52.050;11.036;2023-08-01T02:43:34;2.92;;;1.80;;
5058;SDS011;2548;52.050;11.036;2023-08-01T02:46:02;2.77;;;0.90;;
5058;SDS011;2548;52.050;11.036;2023-08-01T02:48:33;1.83;;;1.23;;
5058;SDS011;2548;52.050;11.036;2023-08-01T02:51:01;1.50;;;1.13;;
5058;SDS011;2548;52.050;11.036;2023-08-01T02:53:29;6.78;;;0.88;;
5058;SDS011;2548;52.050;11.036;2023-08-01T02:55:56;6.73;;;2.40;;
5058;SDS011;2548;52.050;11.036;2023-08-01T02:58:24;3.00;;;1.30;;
5058;SDS011;2548;52.050;11.036;2023-08-01T03:00:51;2.47;;;1.10;;
5058;SDS011;2548;52.050;11.036;2023-08-01T03:03:19;2.88;;;0.90;;
5058;SDS011;2548;52.050;11.036;2023-08-01T03:05:49;2.70;;;1.07;;
5058;SDS011;2548;52.050;11.036;2023-08-01T03:08:16;1.10;;;1.10;;
5058;SDS011;2548;52.050;11.036;2023-08-01T03:10:44;8.23;;;1.02;;
5058;SDS011;2548;52.050;11.036;2023-08-01T03:13:12;5.10;;;1.40;;
5058;SDS011;2548;52.050;11.036;2023-08-01T03:15:39;15.37;;;1.90;;
5058;SDS011;2548;52.050;11.036;2023-08-01T03:18:07;6.20;;;1.40;;
5058;SDS011;2548;52.050;11.036;2023-08-01T03:20:34;3.70;;;1.97;;
5058;SDS011;2548;52.050;11.036;2023-08-01T03:23:03;3.20;;;1.23;;
5058;SDS011;2548;52.050;11.036;2023-08-01T03:25:31;15.50;;;2.33;;
5058;SDS011;2548;52.050;11.036;2023-08-01T03:27:59;9.00;;;2.27;;
5058;SDS011;2548;52.050;11.036;2023-08-01T03:30:27;8.70;;;2.50;;
5058;SDS011;2548;52.050;11.036;2023-08-01T03:32:54;9.02;;;1.75;;
5058;SDS011;2548;52.050;11.036;2023-08-01T03:35:22;8.05;;;1.58;;
5058;SDS011;2548;52.050;11.036;2023-08-01T03:37:51;8.77;;;1.70;;
5058;SDS011;2548;52.050;11.036;2023-08-01T03:40:20;6.07;;;1.90;;
5058;SDS011;2548;52.050;11.036;2023-08-01T03:42:48;2.55;;;1.30;;
5058;SDS011;2548;52.050;11.036;2023-08-01T03:45:15;2.90;;;1.48;;
5058;SDS011;2548;52.050;11.036;2023-08-01T03:47:42;6.43;;;1.80;;
5058;SDS011;2548;52.050;11.036;2023-08-01T03:50:10;5.07;;;2.13;;
5058;SDS011;2548;52.050;11.036;2023-08-01T03:52:39;5.93;;;2.00;;
5058;SDS011;2548;52.050;11.036;2023-08-01T03:55:08;6.38;;;1.95;;
5058;SDS011;2548;52.050;11.036;2023-08-01T03:57:37;2.22;;;1.60;;
5058;SDS011;2548;52.050;11.036;2023-08-01T04:00:05;5.38;;;1.77;;
5058;SDS011;2548;52.050;11.036;2023-08-01T04:02:39;3.20;;;2.10;;
5058;SDS011;2548;52.050;11.036;2023-08-01T04:05:07;1.85;;;1.40;;
5058;SDS011;2548;52.050;11.036;2023-08-01T04:07:35;3.90;;;1.57;;
5058;SDS011;2548;52.050;11.036;2023-08-01T04:10:03;10.07;;;2.17;;
5058;SDS011;2548;52.050;11.036;2023-08-01T04:12:31;3.40;;;1.90;;
5058;SDS011;2548;52.050;11.036;2023-08-01T04:15:01;2.50;;;1.20;;
5058;SDS011;2548;52.050;11.036;2023-08-01T04:17:29;3.03;;;1.23;;
5058;SDS011;2548;52.050;11.036;2023-08-01T04:19:56;2.42;;;1.83;;
5058;SDS011;2548;52.050;11.036;2023-08-01T04:22:23;5.88;;;2.40;;
5058;SDS011;2548;52.050;11.036;2023-08-01T04:24:51;7.32;;;2.85;;
5058;SDS011;2548;52.050;11.036;2023-08-01T04:27:18;4.35;;;1.52;;
5058;SDS011;2548;52.050;11.036;2023-08-01T04:29:46;6.57;;;1.58;;
5058;SDS011;2548;52.050;11.036;2023-08-01T04:32:15;6.28;;;1.50;;
5058;SDS011;2548;52.050;11.036;2023-08-01T04:34:42;2.42;;;1.77;;
5058;SDS011;2548;52.050;11.036;2023-08-01T04:37:10;2.00;;;1.63;;
5058;SDS011;2548;52.050;11.036;2023-08-01T04:39:37;14.00;;;2.10;;
5058;SDS011;2548;52.050;11.036;2023-08-01T04:42:05;3.97;;;1.27;;
5058;SDS011;2548;52.050;11.036;2023-08-01T04:44:33;2.87;;;1.90;;
5058;SDS011;2548;52.050;11.036;2023-08-01T04:47:00;3.20;;;1.42;;
5058;SDS011;2548;52.050;11.036;2023-08-01T04:49:29;3.85;;;2.40;;
5058;SDS011;2548;52.050;11.036;2023-08-01T04:51:56;6.20;;;1.80;;
5058;SDS011;2548;52.050;11.036;2023-08-01T04:54:24;5.03;;;1.90;;
5058;SDS011;2548;52.050;11.036;2023-08-01T04:56:51;5.90;;;1.80;;
5058;SDS011;2548;52.050;11.036;2023-08-01T04:59:19;5.53;;;1.60;;
5058;SDS011;2548;52.050;11.036;2023-08-01T05:01:46;5.90;;;1.95;;
5058;SDS011;2548;52.050;11.036;2023-08-01T05:04:14;1.90;;;1.67;;
5058;SDS011;2548;52.050;11.036;2023-08-01T05:06:42;2.30;;;1.70;;
5058;SDS011;2548;52.050;11.036;2023-08-01T05:09:10;5.07;;;1.47;;
5058;SDS011;2548;52.050;11.036;2023-08-01T05:11:37;2.00;;;1.80;;
5058;SDS011;2548;52.050;11.036;2023-08-01T05:14:05;3.40;;;1.83;;
5058;SDS011;2548;52.050;11.036;2023-08-01T05:16:32;7.00;;;1.40;;
5058;SDS011;2548;52.050;11.036;2023-08-01T05:18:59;1.90;;;1.80;;
5058;SDS011;2548;52.050;11.036;2023-08-01T05:21:27;2.60;;;1.67;;
5058;SDS011;2548;52.050;11.036;2023-08-01T05:23:56;4.43;;;2.47;;
5058;SDS011;2548;52.050;11.036;2023-08-01T05:26:23;12.13;;;1.83;;
5058;SDS011;2548;52.050;11.036;2023-08-01T05:28:51;4.93;;;1.53;;
5058;SDS011;2548;52.050;11.036;2023-08-01T05:31:18;1.58;;;1.48;;
5058;SDS011;2548;52.050;11.036;2023-08-01T05:33:46;2.55;;;1.52;;
5058;SDS011;2548;52.050;11.036;2023-08-01T05:36:13;9.15;;;1.65;;
5058;SDS011;2548;52.050;11.036;2023-08-01T05:38:40;5.25;;;1.88;;
5058;SDS011;2548;52.050;11.036;2023-08-01T05:41:09;3.83;;;1.97;;
5058;SDS011;2548;52.050;11.036;2023-08-01T05:43:37;5.32;;;2.55;;
5058;SDS011;2548;52.050;11.036;2023-08-01T05:46:04;4.97;;;2.13;;
5058;SDS011;2548;52.050;11.036;2023-08-01T05:48:31;7.53;;;1.92;;
5058;SDS011;2548;52.050;11.036;2023-08-01T05:50:59;4.07;;;1.67;;
5058;SDS011;2548;52.050;11.036;2023-08-01T05:53:26;3.92;;;1.55;;
5058;SDS011;2548;52.050;11.036;2023-08-01T05:55:54;4.90;;;1.23;;
5058;SDS011;2548;52.050;11.036;2023-08-01T05:58:23;1.90;;;1.20;;
5058;SDS011;2548;52.050;11.036;2023-08-01T06:00:51;6.95;;;1.52;;
5058;SDS011;2548;52.050;11.036;2023-08-01T06:03:18;4.30;;;1.30;;
5058;SDS011;2548;52.050;11.036;2023-08-01T06:05:45;8.23;;;1.90;;
5058;SDS011;2548;52.050;11.036;2023-08-01T06:08:13;2.00;;;1.80;;
5058;SDS011;2548;52.050;11.036;2023-08-01T06:10:41;4.50;;;1.63;;
5058;SDS011;2548;52.050;11.036;2023-08-01T06:13:09;6.30;;;1.90;;
5058;SDS011;2548;52.050;11.036;2023-08-01T06:15:37;1.77;;;1.40;;
5058;SDS011;2548;52.050;11.036;2023-08-01T06:18:05;2.80;;;1.70;;
5058;SDS011;2548;52.050;11.036;2023-08-01T06:20:32;6.00;;;1.87;;
5058;SDS011;2548;52.050;11.036;2023-08-01T06:23:00;1.92;;;1.83;;
5058;SDS011;2548;52.050;11.036;2023-08-01T06:25:27;1.95;;;1.70;;
5058;SDS011;2548;52.050;11.036;2023-08-01T06:27:54;9.98;;;2.00;;
5058;SDS011;2548;52.050;11.036;2023-08-01T06:30:22;1.67;;;1.20;;
5058;SDS011;2548;52.050;11.036;2023-08-01T06:32:51;5.50;;;1.43;;
5058;SDS011;2548;52.050;11.036;2023-08-01T06:35:18;1.55;;;1.45;;
5058;SDS011;2548;52.050;11.036;2023-08-01T06:37:46;3.00;;;1.50;;
5058;SDS011;2548;52.050;11.036;2023-08-01T06:40:14;2.20;;;1.30;;
5058;SDS011;2548;52.050;11.036;2023-08-01T06:42:41;6.33;;;1.70;;
5058;SDS011;2548;52.050;11.036;2023-08-01T06:45:09;5.73;;;1.60;;
5058;SDS011;2548;52.050;11.036;2023-08-01T06:47:36;7.75;;;1.88;;
5058;SDS011;2548;52.050;11.036;2023-08-01T06:50:06;2.60;;;1.10;;
5058;SDS011;2548;52.050;11.036;2023-08-01T06:52:33;0.75;;;0.50;;
5058;SDS011;2548;52.050;11.036;2023-08-01T06:55:01;0.60;;;0.60;;
5058;SDS011;2548;52.050;11.036;2023-08-01T06:57:29;1.73;;;0.80;;
5058;SDS011;2548;52.050;11.036;2023-08-01T06:59:56;1.40;;;0.50;;
5058;SDS011;2548;52.050;11.036;2023-08-01T07:02:23;0.60;;;0.60;;
5058;SDS011;2548;52.050;11.036;2023-08-01T07:04:52;2.20;;;0.60;;
5058;SDS011;2548;52.050;11.036;2023-08-01T07:07:20;0.60;;;0.60;;
5058;SDS011;2548;52.050;11.036;2023-08-01T07:09:48;0.70;;;0.50;;
5058;SDS011;2548;52.050;11.036;2023-08-01T07:12:15;3.33;;;0.70;;
5058;SDS011;2548;52.050;11.036;2023-08-01T07:14:43;1.08;;;0.98;;
5058;SDS011;2548;52.050;11.036;2023-08-01T07:17:10;0.80;;;0.80;;
5058;SDS011;2548;52.050;11.036;2023-08-01T07:19:38;1.88;;;0.80;;
5058;SDS011;2548;52.050;11.036;2023-08-01T07:22:05;1.85;;;0.77;;
5058;SDS011;2548;52.050;11.036;2023-08-01T07:24:34;0.80;;;0.80;;
5058;SDS011;2548;52.050;11.036;2023-08-01T07:27:01;0.70;;;0.70;;
5058;SDS011;2548;52.050;11.036;2023-08-01T07:29:29;1.70;;;1.00;;
5058;SDS011;2548;52.050;11.036;2023-08-01T07:31:57;2.05;;;0.82;;
5058;SDS011;2548;52.050;11.036;2023-08-01T07:34:24;1.13;;;1.02;;
5058;SDS011;2548;52.050;11.036;2023-08-01T07:36:51;0.60;;;0.60;;
5058;SDS011;2548;52.050;11.036;2023-08-01T07:39:19;2.67;;;1.52;;
5058;SDS011;2548;52.050;11.036;2023-08-01T07:41:48;1.60;;;1.50;;
5058;SDS011;2548;52.050;11.036;2023-08-01T07:44:15;1.80;;;1.70;;
5058;SDS011;2548;52.050;11.036;2023-08-01T07:46:42;5.20;;;1.90;;
5058;SDS011;2548;52.050;11.036;2023-08-01T07:49:10;1.85;;;1.75;;
5058;SDS011;2548;52.050;11.036;2023-08-01T07:51:37;2.20;;;2.10;;
5058;SDS011;2548;52.050;11.036;2023-08-01T07:54:05;2.53;;;2.33;;
5058;SDS011;2548;52.050;11.036;2023-08-01T07:56:32;2.25;;;2.15;;
5058;SDS011;2548;52.050;11.036;2023-08-01T07:59:01;4.00;;;2.70;;
5058;SDS011;2548;52.050;11.036;2023-08-01T08:01:28;4.05;;;3.05;;
5058;SDS011;2548;52.050;11.036;2023-08-01T08:03:56;2.20;;;2.00;;
5058;SDS011;2548;52.050;11.036;2023-08-01T08:06:23;2.50;;;2.40;;
5058;SDS011;2548;52.050;11.036;2023-08-01T08:08:51;5.88;;;2.67;;
5058;SDS011;2548;52.050;11.036;2023-08-01T08:11:18;2.53;;;2.38;;
5058;SDS011;2548;52.050;11.036;2023-08-01T08:13:45;2.95;;;2.70;;
5058;SDS011;2548;52.050;11.036;2023-08-01T08:18:43;1.83;;;1.73;;
5058;SDS011;2548;52.050;11.036;2023-08-01T08:21:11;2.78;;;2.67;;
5058;SDS011;2548;52.050;11.036;2023-08-01T08:23:39;2.67;;;2.57;;
5058;SDS011;2548;52.050;11.036;2023-08-01T08:26:06;4.53;;;2.10;;
5058;SDS011;2548;52.050;11.036;2023-08-01T08:28:34;2.47;;;2.37;;
5058;SDS011;2548;52.050;11.036;2023-08-01T08:31:02;2.22;;;2.10;;
5058;SDS011;2548;52.050;11.036;2023-08-01T08:33:30;1.90;;;1.80;;
5058;SDS011;2548;52.050;11.036;2023-08-01T08:36:04;1.63;;;1.52;;
5058;SDS011;2548;52.050;11.036;2023-08-01T08:38:32;1.23;;;1.23;;
5058;SDS011;2548;52.050;11.036;2023-08-01T08:41:05;1.23;;;1.23;;
5058;SDS011;2548;52.050;11.036;2023-08-01T08:43:35;1.05;;;1.05;;
5058;SDS011;2548;52.050;11.036;2023-08-01T08:46:04;1.37;;;1.27;;
5058;SDS011;2548;52.050;11.036;2023-08-01T08:48:38;2.03;;;1.10;;
5058;SDS011;2548;52.050;11.036;2023-08-01T08:51:09;3.65;;;1.67;;
5058;SDS011;2548;52.050;11.036;2023-08-01T08:53:38;2.45;;;1.80;;
5058;SDS011;2548;52.050;11.036;2023-08-01T08:56:08;2.35;;;1.30;;
5058;SDS011;2548;52.050;11.036;2023-08-01T08:58:36;1.60;;;1.50;;
5058;SDS011;2548;52.050;11.036;2023-08-01T09:01:08;2.60;;;1.27;;
5058;SDS011;2548;52.050;11.036;2023-08-01T09:03:36;3.80;;;1.90;;
5058;SDS011;2548;52.050;11.036;2023-08-01T09:06:12;3.15;;;2.28;;
5058;SDS011;2548;52.050;11.036;2023-08-01T09:08:44;9.20;;;3.73;;
5058;SDS011;2548;52.050;11.036;2023-08-01T09:11:16;4.13;;;3.83;;
5058;SDS011;2548;52.050;11.036;2023-08-01T09:13:44;8.32;;;4.13;;
5058;SDS011;2548;52.050;11.036;2023-08-01T09:16:12;7.45;;;3.40;;
5058;SDS011;2548;52.050;11.036;2023-08-01T09:18:53;4.65;;;3.90;;
5058;SDS011;2548;52.050;11.036;2023-08-01T09:21:25;4.68;;;4.05;;
5058;SDS011;2548;52.050;11.036;2023-08-01T09:23:52;8.32;;;3.72;;
5058;SDS011;2548;52.050;11.036;2023-08-01T09:26:23;8.98;;;4.43;;
5058;SDS011;2548;52.050;11.036;2023-08-01T09:28:57;5.30;;;4.05;;
5058;SDS011;2548;52.050;11.036;2023-08-01T09:31:26;11.13;;;4.90;;
5058;SDS011;2548;52.050;11.036;2023-08-01T09:33:54;6.40;;;4.63;;
5058;SDS011;2548;52.050;11.036;2023-08-01T09:36:21;4.20;;;3.80;;
5058;SDS011;2548;52.050;11.036;2023-08-01T09:38:52;5.43;;;3.40;;
5058;SDS011;2548;52.050;11.036;2023-08-01T09:41:25;6.10;;;3.45;;
5058;SDS011;2548;52.050;11.036;2023-08-01T09:43:53;3.35;;;2.80;;
5058;SDS011;2548;52.050;11.036;2023-08-01T09:46:20;6.35;;;3.60;;
5058;SDS011;2548;52.050;11.036;2023-08-01T09:48:48;5.60;;;3.28;;
5058;SDS011;2548;52.050;11.036;2023-08-01T09:51:16;2.95;;;2.55;;
5058;SDS011;2548;52.050;11.036;2023-08-01T09:53:47;2.97;;;2.80;;
5058;SDS011;2548;52.050;11.036;2023-08-01T09:56:18;3.97;;;3.58;;
5058;SDS011;2548;52.050;11.036;2023-08-01T09:58:47;9.32;;;2.92;;
5058;SDS011;2548;52.050;11.036;2023-08-01T10:01:16;8.63;;;4.05;;
5058;SDS011;2548;52.050;11.036;2023-08-01T10:03:44;5.82;;;3.08;;
5058;SDS011;2548;52.050;11.036;2023-08-01T10:06:14;7.13;;;3.20;;
5058;SDS011;2548;52.050;11.036;2023-08-01T10:08:45;5.17;;;3.33;;
5058;SDS011;2548;52.050;11.036;2023-08-01T10:11:14;6.10;;;3.37;;
5058;SDS011;2548;52.050;11.036;2023-08-01T10:13:48;5.50;;;3.03;;
5058;SDS011;2548;52.050;11.036;2023-08-01T10:16:15;3.70;;;2.83;;
5058;SDS011;2548;52.050;11.036;2023-08-01T10:18:43;3.07;;;2.83;;
5058;SDS011;2548;52.050;11.036;2023-08-01T10:21:11;3.40;;;3.10;;
5058;SDS011;2548;52.050;11.036;2023-08-01T10:23:42;3.80;;;3.30;;
5058;SDS011;2548;52.050;11.036;2023-08-01T10:26:11;3.77;;;3.40;;
5058;SDS011;2548;52.050;11.036;2023-08-01T10:28:40;5.07;;;2.97;;
5058;SDS011;2548;52.050;11.036;2023-08-01T10:31:10;4.03;;;3.63;;
5058;SDS011;2548;52.050;11.036;2023-08-01T10:33:39;6.53;;;3.57;;
5058;SDS011;2548;52.050;11.036;2023-08-01T10:36:14;7.03;;;3.67;;
5058;SDS011;2548;52.050;11.036;2023-08-01T10:38:46;7.27;;;3.33;;
5058;SDS011;2548;52.050;11.036;2023-08-01T10:41:21;7.37;;;3.70;;
5058;SDS011;2548;52.050;11.036;2023-08-01T10:43:51;6.53;;;3.63;;
5058;SDS011;2548;52.050;11.036;2023-08-01T10:46:20;5.80;;;3.33;;
5058;SDS011;2548;52.050;11.036;2023-08-01T10:48:49;4.13;;;3.53;;
5058;SDS011;2548;52.050;11.036;2023-08-01T10:51:17;4.80;;;3.10;;
5058;SDS011;2548;52.050;11.036;2023-08-01T10:53:44;5.30;;;3.07;;
5058;SDS011;2548;52.050;11.036;2023-08-01T10:56:17;5.20;;;3.23;;
5058;SDS011;2548;52.050;11.036;2023-08-01T10:58:45;4.63;;;3.57;;
5058;SDS011;2548;52.050;11.036;2023-08-01T11:01:13;5.60;;;3.13;;
5058;SDS011;2548;52.050;11.036;2023-08-01T11:03:42;5.97;;;3.20;;
5058;SDS011;2548;52.050;11.036;2023-08-01T11:06:09;6.00;;;2.63;;
5058;SDS011;2548;52.050;11.036;2023-08-01T11:08:37;5.40;;;2.73;;
5058;SDS011;2548;52.050;11.036;2023-08-01T11:11:06;2.67;;;2.47;;
5058;SDS011;2548;52.050;11.036;2023-08-01T11:13:35;3.60;;;2.17;;
5058;SDS011;2548;52.050;11.036;2023-08-01T11:16:02;4.97;;;2.43;;
5058;SDS011;2548;52.050;11.036;2023-08-01T11:18:40;4.00;;;2.00;;
5058;SDS011;2548;52.050;11.036;2023-08-01T11:21:09;4.27;;;2.50;;
5058;SDS011;2548;52.050;11.036;2023-08-01T11:23:36;2.97;;;2.20;;
5058;SDS011;2548;52.050;11.036;2023-08-01T11:26:06;3.20;;;2.40;;
5058;SDS011;2548;52.050;11.036;2023-08-01T11:28:34;1.87;;;1.70;;
5058;SDS011;2548;52.050;11.036;2023-08-01T11:31:10;2.20;;;2.00;;
5058;SDS011;2548;52.050;11.036;2023-08-01T11:33:38;4.90;;;2.30;;
5058;SDS011;2548;52.050;11.036;2023-08-01T11:36:07;3.00;;;2.30;;
5058;SDS011;2548;52.050;11.036;2023-08-01T11:38:36;2.03;;;1.93;;
5058;SDS011;2548;52.050;11.036;2023-08-01T11:41:04;2.40;;;2.20;;
5058;SDS011;2548;52.050;11.036;2023-08-01T11:43:37;1.77;;;1.67;;
5058;SDS011;2548;52.050;11.036;2023-08-01T11:46:05;2.07;;;1.87;;
5058;SDS011;2548;52.050;11.036;2023-08-01T11:48:33;3.17;;;1.77;;
5058;SDS011;2548;52.050;11.036;2023-08-01T11:51:01;2.50;;;2.10;;
5058;SDS011;2548;52.050;11.036;2023-08-01T11:53:30;2.13;;;1.90;;
5058;SDS011;2548;52.050;11.036;2023-08-01T11:56:03;1.93;;;1.43;;
5058;SDS011;2548;52.050;11.036;2023-08-01T11:58:31;4.10;;;1.70;;
5058;SDS011;2548;52.050;11.036;2023-08-01T12:01:03;1.97;;;1.83;;
5058;SDS011;2548;52.050;11.036;2023-08-01T12:03:31;1.70;;;1.60;;
5058;SDS011;2548;52.050;11.036;2023-08-01T12:06:08;3.20;;;1.70;;
5058;SDS011;2548;52.050;11.036;2023-08-01T12:08:38;1.90;;;1.77;;
5058;SDS011;2548;52.050;11.036;2023-08-01T12:11:16;3.20;;;2.10;;
5058;SDS011;2548;52.050;11.036;2023-08-01T12:13:45;2.80;;;2.07;;
5058;SDS011;2548;52.050;11.036;2023-08-01T12:16:13;1.90;;;1.80;;
5058;SDS011;2548;52.050;11.036;2023-08-01T12:18:45;2.07;;;1.97;;
5058;SDS011;2548;52.050;11.036;2023-08-01T12:21:13;1.93;;;1.83;;
5058;SDS011;2548;52.050;11.036;2023-08-01T12:23:42;2.17;;;1.93;;
5058;SDS011;2548;52.050;11.036;2023-08-01T12:26:10;2.50;;;2.17;;
5058;SDS011;2548;52.050;11.036;2023-08-01T12:28:37;3.33;;;1.80;;
5058;SDS011;2548;52.050;11.036;2023-08-01T12:31:05;2.00;;;1.90;;
5058;SDS011;2548;52.050;11.036;2023-08-01T12:33:32;1.93;;;1.83;;
5058;SDS011;2548;52.050;11.036;2023-08-01T12:36:00;2.10;;;1.40;;
5058;SDS011;2548;52.050;11.036;2023-08-01T12:38:27;3.63;;;1.63;;
5058;SDS011;2548;52.050;11.036;2023-08-01T12:40:56;1.60;;;1.50;;
5058;SDS011;2548;52.050;11.036;2023-08-01T12:43:23;1.97;;;1.70;;
5058;SDS011;2548;52.050;11.036;2023-08-01T12:45:51;3.40;;;2.10;;
5058;SDS011;2548;52.050;11.036;2023-08-01T12:48:18;19.67;;;2.67;;
5058;SDS011;2548;52.050;11.036;2023-08-01T12:50:46;2.33;;;1.40;;
5058;SDS011;2548;52.050;11.036;2023-08-01T12:53:14;4.13;;;1.83;;
5058;SDS011;2548;52.050;11.036;2023-08-01T12:55:42;1.60;;;1.43;;
5058;SDS011;2548;52.050;11.036;2023-08-01T12:58:11;1.90;;;1.80;;
5058;SDS011;2548;52.050;11.036;2023-08-01T13:00:39;3.70;;;2.20;;
5058;SDS011;2548;52.050;11.036;2023-08-01T13:03:07;2.40;;;1.70;;
5058;SDS011;2548;52.050;11.036;2023-08-01T13:05:36;1.93;;;1.40;;
5058;SDS011;2548;52.050;11.036;2023-08-01T13:08:04;2.20;;;1.97;;
5058;SDS011;2548;52.050;11.036;2023-08-01T13:10:31;6.50;;;2.10;;
5058;SDS011;2548;52.050;11.036;2023-08-01T13:12:59;1.83;;;1.70;;
5058;SDS011;2548;52.050;11.036;2023-08-01T13:15:29;4.97;;;1.93;;
5058;SDS011;2548;52.050;11.036;2023-08-01T13:17:56;2.70;;;2.00;;
5058;SDS011;2548;52.050;11.036;2023-08-01T13:20:24;2.03;;;1.90;;
5058;SDS011;2548;52.050;11.036;2023-08-01T13:22:52;2.60;;;2.50;;
5058;SDS011;2548;52.050;11.036;2023-08-01T13:25:19;3.67;;;2.00;;
5058;SDS011;2548;52.050;11.036;2023-08-01T13:27:46;2.63;;;2.50;;
5058;SDS011;2548;52.050;11.036;2023-08-01T13:30:14;5.00;;;2.93;;
5058;SDS011;2548;52.050;11.036;2023-08-01T13:32:44;11.17;;;3.90;;
5058;SDS011;2548;52.050;11.036;2023-08-01T13:35:12;6.63;;;2.43;;
5058;SDS011;2548;52.050;11.036;2023-08-01T13:37:40;5.80;;;3.03;;
5058;SDS011;2548;52.050;11.036;2023-08-01T13:40:08;5.00;;;2.80;;
5058;SDS011;2548;52.050;11.036;2023-08-01T13:42:37;3.73;;;3.50;;
5058;SDS011;2548;52.050;11.036;2023-08-01T13:45:05;5.50;;;3.20;;
5058;SDS011;2548;52.050;11.036;2023-08-01T13:47:33;5.40;;;3.80;;
5058;SDS011;2548;52.050;11.036;2023-08-01T13:50:02;5.83;;;3.20;;
5058;SDS011;2548;52.050;11.036;2023-08-01T13:52:30;16.63;;;3.43;;
5058;SDS011;2548;52.050;11.036;2023-08-01T13:54:58;3.10;;;2.90;;
5058;SDS011;2548;52.050;11.036;2023-08-01T13:57:25;2.80;;;2.70;;
5058;SDS011;2548;52.050;11.036;2023-08-01T13:59:53;3.80;;;3.40;;
5058;SDS011;2548;52.050;11.036;2023-08-01T14:02:20;6.10;;;3.80;;
5058;SDS011;2548;52.050;11.036;2023-08-01T14:04:50;5.20;;;3.37;;
5058;SDS011;2548;52.050;11.036;2023-08-01T14:07:19;3.70;;;3.03;;
5058;SDS011;2548;52.050;11.036;2023-08-01T14:09:47;4.10;;;3.30;;
5058;SDS011;2548;52.050;11.036;2023-08-01T14:12:14;3.10;;;3.00;;
5058;SDS011;2548;52.050;11.036;2023-08-01T14:14:44;3.10;;;2.90;;
5058;SDS011;2548;52.050;11.036;2023-08-01T14:17:12;3.53;;;2.60;;
5058;SDS011;2548;52.050;11.036;2023-08-01T14:19:39;3.20;;;2.90;;
5058;SDS011;2548;52.050;11.036;2023-08-01T14:22:07;3.77;;;2.60;;
5058;SDS011;2548;52.050;11.036;2023-08-01T14:24:35;7.87;;;2.47;;
5058;SDS011;2548;52.050;11.036;2023-08-01T14:27:03;2.77;;;2.57;;
5058;SDS011;2548;52.050;11.036;2023-08-01T14:29:31;5.20;;;2.73;;
5058;SDS011;2548;52.050;11.036;2023-08-01T14:31:58;3.20;;;2.77;;
5058;SDS011;2548;52.050;11.036;2023-08-01T14:34:25;2.67;;;2.47;;
5058;SDS011;2548;52.050;11.036;2023-08-01T14:36:53;3.90;;;2.87;;
5058;SDS011;2548;52.050;11.036;2023-08-01T14:39:21;4.13;;;2.77;;
5058;SDS011;2548;52.050;11.036;2023-08-01T14:41:49;2.90;;;2.60;;
5058;SDS011;2548;52.050;11.036;2023-08-01T14:44:17;3.00;;;2.80;;
5058;SDS011;2548;52.050;11.036;2023-08-01T14:46:44;3.63;;;2.65;;
5058;SDS011;2548;52.050;11.036;2023-08-01T14:49:12;2.28;;;2.13;;
5058;SDS011;2548;52.050;11.036;2023-08-01T14:51:40;2.33;;;2.20;;
5058;SDS011;2548;52.050;11.036;2023-08-01T14:54:07;2.97;;;2.60;;
5058;SDS011;2548;52.050;11.036;2023-08-01T14:56:35;3.33;;;2.33;;
5058;SDS011;2548;52.050;11.036;2023-08-01T14:59:04;3.43;;;2.70;;
5058;SDS011;2548;52.050;11.036;2023-08-01T15:01:31;5.67;;;2.30;;
5058;SDS011;2548;52.050;11.036;2023-08-01T15:03:58;3.97;;;3.10;;
5058;SDS011;2548;52.050;11.036;2023-08-01T15:06:26;5.27;;;2.57;;
5058;SDS011;2548;52.050;11.036;2023-08-01T15:08:53;2.53;;;2.33;;